createdAt,value
2023-08-29T00:00:54.563Z,23.94
2023-08-29T00:03:29.482Z,23.91
2023-08-29T00:06:02.735Z,23.88
2023-08-29T00:08:31.205Z,23.85
2023-08-29T00:10:59.985Z,23.85
2023-08-29T00:13:28.210Z,23.85
2023-08-29T00:15:56.757Z,23.86
2023-08-29T00:18:24.962Z,23.85
2023-08-29T00:20:54.272Z,23.83
2023-08-29T00:23:22.415Z,23.79
2023-08-29T00:25:53.623Z,23.76
2023-08-29T00:28:21.741Z,23.73
2023-08-29T00:30:49.862Z,23.71
2023-08-29T00:33:17.992Z,23.70
2023-08-29T00:35:47.508Z,23.72
2023-08-29T00:38:16.030Z,23.74
2023-08-29T00:40:44.251Z,23.76
2023-08-29T00:43:12.483Z,23.80
2023-08-29T00:45:41.171Z,23.84
2023-08-29T00:48:10.290Z,23.87
2023-08-29T00:50:39.441Z,23.87
2023-08-29T00:53:09.794Z,23.86
2023-08-29T00:55:37.984Z,23.85
2023-08-29T00:58:06.465Z,23.84
2023-08-29T01:00:35.431Z,23.81
2023-08-29T01:03:04.370Z,23.79
2023-08-29T01:05:35.391Z,23.76
2023-08-29T01:08:05.452Z,23.72
2023-08-29T01:10:52.707Z,23.69
2023-08-29T01:13:32.568Z,23.67
2023-08-29T01:16:06.501Z,23.66
2023-08-29T01:18:39.246Z,23.67
2023-08-29T01:21:30.748Z,23.69
2023-08-29T01:24:05.981Z,23.72
2023-08-29T01:26:35.510Z,23.75
2023-08-29T01:29:05.232Z,23.80
2023-08-29T01:31:35.797Z,23.84
2023-08-29T01:34:04.691Z,23.88
2023-08-29T01:36:43.550Z,23.91
2023-08-29T01:39:12.276Z,23.92
2023-08-29T01:41:41.088Z,23.91
2023-08-29T01:44:09.108Z,23.90
2023-08-29T01:46:38.439Z,23.90
2023-08-29T01:49:07.561Z,23.91
2023-08-29T01:51:35.780Z,23.92
2023-08-29T01:54:04.621Z,23.93
2023-08-29T01:56:34.531Z,23.96
2023-08-29T01:59:03.048Z,24.00
2023-08-29T02:01:31.749Z,24.03
2023-08-29T02:04:00.046Z,24.07
2023-08-29T02:06:29.325Z,24.10
2023-08-29T02:08:57.333Z,24.14
2023-08-29T02:11:25.454Z,24.16
2023-08-29T02:13:53.676Z,24.16
2023-08-29T02:16:21.959Z,24.14
2023-08-29T02:18:50.313Z,24.13
2023-08-29T02:21:18.333Z,24.10
2023-08-29T02:23:47.259Z,24.06
2023-08-29T02:26:15.483Z,24.03
2023-08-29T02:28:43.597Z,24.00
2023-08-29T02:31:11.745Z,23.98
2023-08-29T02:33:40.336Z,23.97
2023-08-29T02:36:08.559Z,23.95
2023-08-29T02:38:36.697Z,23.92
2023-08-29T02:41:04.908Z,23.89
2023-08-29T02:43:34.220Z,23.88
2023-08-29T02:46:02.213Z,23.87
2023-08-29T02:48:30.573Z,23.85
2023-08-29T02:50:58.682Z,23.83
2023-08-29T02:53:26.706Z,23.82
2023-08-29T02:55:55.330Z,23.83
2023-08-29T02:58:23.457Z,23.86
2023-08-29T03:00:56.357Z,23.90
2023-08-29T03:03:25.396Z,23.93
2023-08-29T03:05:57.945Z,23.95
2023-08-29T03:08:27.568Z,23.96
2023-08-29T03:10:55.887Z,23.98
2023-08-29T03:13:24.313Z,23.98
2023-08-29T03:15:52.338Z,23.98
2023-08-29T03:18:20.619Z,23.98
2023-08-29T03:20:48.772Z,23.99
2023-08-29T03:23:16.789Z,24.00
2023-08-29T03:25:44.908Z,24.00
2023-08-29T03:28:12.939Z,24.00
2023-08-29T03:30:41.048Z,24.01
2023-08-29T03:33:09.587Z,24.01
2023-08-29T03:35:38.399Z,24.02
2023-08-29T03:38:07.607Z,24.04
2023-08-29T03:40:36.038Z,24.05
2023-08-29T03:43:04.561Z,24.06
2023-08-29T03:45:32.978Z,24.08
2023-08-29T03:48:02.497Z,24.10
2023-08-29T03:50:32.031Z,24.14
2023-08-29T03:53:00.055Z,24.18
2023-08-29T03:55:29.008Z,24.22
2023-08-29T03:57:58.100Z,24.27
2023-08-29T04:00:26.818Z,24.32
2023-08-29T04:02:55.173Z,24.38
2023-08-29T04:05:23.990Z,24.45
2023-08-29T04:07:52.590Z,24.53
2023-08-29T04:10:20.708Z,24.59
2023-08-29T04:12:48.723Z,24.65
2023-08-29T04:15:17.056Z,24.69
2023-08-29T04:17:45.497Z,24.75
2023-08-29T04:20:14.289Z,24.81
2023-08-29T04:22:42.515Z,24.85
2023-08-29T04:25:10.630Z,24.91
2023-08-29T04:27:39.655Z,24.97
2023-08-29T04:30:08.474Z,25.04
2023-08-29T04:32:38.702Z,25.10
2023-08-29T04:35:08.327Z,25.18
2023-08-29T04:37:37.272Z,25.26
2023-08-29T04:40:09.291Z,25.35
2023-08-29T04:42:39.112Z,25.44
2023-08-29T04:45:08.544Z,25.53
2023-08-29T04:47:37.193Z,25.61
2023-08-29T04:50:06.286Z,25.69
2023-08-29T04:52:34.399Z,25.79
2023-08-29T04:55:02.516Z,25.89
2023-08-29T04:57:31.041Z,25.97
2023-08-29T04:59:59.261Z,26.07
2023-08-29T05:02:27.797Z,26.16
2023-08-29T05:04:57.112Z,26.25
2023-08-29T05:07:26.349Z,26.36
2023-08-29T05:09:55.771Z,26.46
2023-08-29T05:12:24.489Z,26.57
2023-08-29T05:14:55.807Z,26.68
2023-08-29T05:17:23.929Z,26.80
2023-08-29T05:19:52.251Z,26.93
2023-08-29T05:22:20.496Z,27.06
2023-08-29T05:24:48.786Z,27.18
2023-08-29T05:27:16.810Z,27.29
2023-08-29T05:29:45.032Z,27.41
2023-08-29T05:32:13.455Z,27.52
2023-08-29T05:34:42.075Z,27.64
2023-08-29T05:37:10.198Z,27.77
2023-08-29T05:39:38.315Z,27.90
2023-08-29T05:42:06.435Z,28.02
2023-08-29T05:44:34.554Z,28.14
2023-08-29T05:47:03.077Z,28.26
2023-08-29T05:49:31.296Z,28.40
2023-08-29T05:52:00.031Z,28.53
2023-08-29T05:54:28.641Z,28.66
2023-08-29T05:56:56.862Z,28.78
2023-08-29T05:59:25.594Z,28.90
2023-08-29T06:01:53.804Z,29.01
2023-08-29T06:04:22.022Z,29.11
2023-08-29T06:06:50.546Z,29.21
2023-08-29T06:09:19.870Z,29.32
2023-08-29T06:11:47.998Z,29.45
2023-08-29T06:14:16.510Z,29.58
2023-08-29T06:16:44.740Z,29.71
2023-08-29T06:19:12.848Z,29.82
2023-08-29T06:21:41.276Z,29.94
2023-08-29T06:24:09.849Z,30.04
2023-08-29T06:26:38.748Z,30.14
2023-08-29T06:29:06.954Z,30.25
2023-08-29T06:31:35.156Z,30.35
2023-08-29T06:34:03.279Z,30.45
2023-08-29T06:36:32.500Z,30.57
2023-08-29T06:39:02.226Z,30.70
2023-08-29T06:41:30.346Z,30.81
2023-08-29T06:43:58.463Z,30.93
2023-08-29T06:46:26.651Z,31.03
2023-08-29T06:48:55.021Z,31.14
2023-08-29T06:51:23.234Z,31.27
2023-08-29T06:53:51.555Z,31.39
2023-08-29T06:56:20.266Z,31.50
2023-08-29T06:58:48.388Z,31.60
2023-08-29T07:01:16.424Z,31.71
2023-08-29T07:03:44.778Z,31.83
2023-08-29T07:06:13.053Z,31.96
2023-08-29T07:08:42.080Z,32.09
2023-08-29T07:24:06.198Z,32.86
2023-08-29T07:26:34.415Z,33.21
2023-08-29T07:29:02.632Z,33.28
2023-08-29T07:31:31.558Z,33.35
2023-08-29T07:33:59.875Z,33.41
2023-08-29T07:36:28.595Z,33.44
2023-08-29T07:38:58.120Z,33.43
2023-08-29T07:41:26.242Z,33.44
2023-08-29T07:43:54.364Z,33.46
2023-08-29T07:46:22.465Z,33.47
2023-08-29T07:48:51.805Z,33.49
2023-08-29T07:51:19.930Z,33.52
2023-08-29T07:53:48.317Z,33.53
2023-08-29T07:56:16.568Z,33.52
2023-08-29T07:58:44.890Z,33.52
2023-08-29T08:01:13.364Z,33.57
2023-08-29T08:03:42.045Z,33.61
2023-08-29T08:06:10.252Z,33.63
2023-08-29T08:08:38.473Z,33.66
2023-08-29T08:11:06.603Z,33.66
2023-08-29T08:13:36.519Z,33.71
2023-08-29T08:16:06.961Z,33.76
2023-08-29T08:18:35.474Z,33.79
2023-08-29T08:21:04.056Z,33.87
2023-08-29T08:23:33.016Z,33.94
2023-08-29T08:26:01.135Z,34.01
2023-08-29T08:28:29.257Z,34.07
2023-08-29T08:30:57.477Z,34.13
2023-08-29T08:33:28.541Z,34.15
2023-08-29T08:35:57.644Z,34.20
2023-08-29T08:38:26.153Z,34.24
2023-08-29T08:41:00.800Z,34.30
2023-08-29T08:43:31.219Z,34.37
2023-08-29T08:46:00.404Z,34.42
2023-08-29T08:48:30.041Z,34.45
2023-08-29T08:50:59.694Z,34.51
2023-08-29T08:53:29.747Z,34.56
2023-08-29T08:55:58.347Z,34.64
2023-08-29T08:58:26.865Z,34.71
2023-08-29T09:00:56.305Z,34.77
2023-08-29T09:03:24.474Z,34.84
2023-08-29T09:05:52.933Z,34.93
2023-08-29T09:08:22.758Z,34.93
2023-08-29T09:10:53.487Z,34.97
2023-08-29T09:13:22.012Z,35.06
2023-08-29T09:15:50.366Z,35.16
2023-08-29T09:18:32.948Z,35.23
2023-08-29T09:21:02.207Z,35.31
2023-08-29T09:23:38.069Z,35.37
2023-08-29T09:26:06.307Z,35.40
2023-08-29T09:28:34.334Z,35.43
2023-08-29T09:31:10.896Z,35.46
2023-08-29T09:33:40.887Z,35.51
2023-08-29T09:36:09.013Z,35.54
2023-08-29T09:38:37.562Z,35.60
2023-08-29T09:41:05.949Z,35.65
2023-08-29T09:43:34.471Z,35.73
2023-08-29T09:46:05.436Z,35.77
2023-08-29T09:48:34.827Z,35.82
2023-08-29T09:51:04.848Z,35.84
2023-08-29T09:53:33.873Z,35.82
2023-08-29T09:56:12.632Z,35.86
2023-08-29T09:58:42.060Z,35.95
2023-08-29T10:01:12.151Z,35.99
2023-08-29T10:03:43.617Z,36.07
2023-08-29T10:06:16.305Z,36.09
2023-08-29T10:08:56.158Z,36.07
2023-08-29T10:11:24.541Z,36.09
2023-08-29T10:13:53.433Z,36.11
2023-08-29T10:16:23.792Z,36.09
2023-08-29T10:18:53.410Z,36.01
2023-08-29T10:21:23.091Z,35.97
2023-08-29T10:23:52.162Z,36.05
2023-08-29T10:26:21.585Z,36.13
2023-08-29T10:28:50.807Z,36.16
2023-08-29T10:31:20.676Z,36.18
2023-08-29T10:33:49.471Z,36.19
2023-08-29T10:36:18.182Z,36.12
2023-08-29T10:38:49.710Z,36.04
2023-08-29T10:41:19.032Z,36.03
2023-08-29T10:43:48.475Z,36.05
2023-08-29T10:46:17.551Z,36.01
2023-08-29T10:48:46.002Z,35.97
2023-08-29T10:51:15.548Z,35.98
2023-08-29T10:53:58.364Z,35.98
2023-08-29T10:56:40.997Z,35.90
2023-08-29T10:59:34.485Z,35.91
2023-08-29T11:02:28.244Z,35.91
2023-08-29T11:05:05.971Z,35.87
2023-08-29T11:07:36.166Z,35.91
2023-08-29T11:10:17.060Z,35.98
2023-08-29T11:13:09.583Z,36.15
2023-08-29T11:15:50.006Z,36.25
2023-08-29T11:18:36.990Z,36.36
2023-08-29T11:21:10.041Z,36.51
2023-08-29T11:23:40.462Z,36.51
2023-08-29T11:26:09.985Z,36.52
2023-08-29T11:28:46.652Z,36.55
2023-08-29T11:31:14.972Z,36.66
2023-08-29T11:33:43.084Z,36.73
2023-08-29T11:36:14.456Z,36.62
2023-08-29T11:38:44.462Z,36.51
2023-08-29T11:41:28.418Z,36.52
2023-08-29T11:45:03.572Z,36.48
2023-08-29T11:46:50.865Z,36.48
2023-08-29T11:49:19.058Z,36.49
2023-08-29T11:51:47.285Z,36.56
2023-08-29T11:54:57.746Z,36.60
2023-08-29T11:57:31.331Z,36.63
2023-08-29T11:59:59.507Z,36.64
2023-08-29T12:02:30.382Z,36.63
2023-08-29T12:04:58.964Z,36.60
2023-08-29T12:07:34.418Z,36.63
2023-08-29T12:10:11.482Z,36.68
2023-08-29T12:12:39.978Z,36.71
2023-08-29T12:15:12.294Z,36.77
2023-08-29T12:17:44.053Z,36.70
2023-08-29T12:20:15.420Z,36.67
2023-08-29T12:22:53.832Z,36.66
2023-08-29T12:25:22.161Z,36.64
2023-08-29T12:27:50.694Z,36.62
2023-08-29T12:30:18.924Z,36.67
2023-08-29T12:32:48.609Z,36.67
2023-08-29T12:35:20.102Z,36.69
2023-08-29T12:37:48.474Z,36.68
2023-08-29T12:40:18.110Z,36.70
2023-08-29T12:42:48.697Z,36.74
2023-08-29T12:45:17.099Z,36.79
2023-08-29T12:47:47.729Z,36.80
2023-08-29T12:50:16.183Z,36.80
2023-08-29T12:52:44.826Z,36.78
2023-08-29T12:55:13.607Z,36.75
2023-08-29T12:57:41.968Z,36.73
2023-08-29T13:00:11.771Z,36.65
2023-08-29T13:02:40.075Z,36.64
2023-08-29T13:05:08.843Z,36.64
2023-08-29T13:07:37.566Z,36.54
2023-08-29T13:10:06.585Z,36.48
2023-08-29T13:12:37.612Z,36.47
2023-08-29T13:15:07.863Z,36.38
2023-08-29T13:17:36.191Z,36.36
2023-08-29T13:20:05.037Z,36.34
2023-08-29T13:22:33.210Z,36.31
2023-08-29T13:25:01.322Z,36.33
2023-08-29T13:27:30.747Z,36.32
2023-08-29T13:29:59.068Z,36.34
2023-08-29T13:32:27.541Z,36.37
2023-08-29T13:34:55.807Z,36.32
2023-08-29T13:37:23.931Z,36.31
2023-08-29T13:39:58.871Z,36.39
2023-08-29T13:42:28.395Z,36.54
2023-08-29T13:44:59.815Z,36.69
2023-08-29T13:47:28.677Z,36.80
2023-08-29T13:49:56.874Z,36.81
2023-08-29T13:52:25.243Z,36.77
2023-08-29T13:54:53.545Z,36.72
2023-08-29T13:57:21.839Z,36.63
2023-08-29T13:59:50.158Z,36.60
2023-08-29T14:02:18.979Z,36.56
2023-08-29T14:04:47.497Z,36.51
2023-08-29T14:07:17.527Z,36.49
2023-08-29T14:09:46.091Z,36.49
2023-08-29T14:12:14.567Z,36.54
2023-08-29T14:14:42.793Z,36.50
2023-08-29T14:17:10.912Z,36.36
2023-08-29T14:19:39.127Z,36.27
2023-08-29T14:22:07.266Z,36.25
2023-08-29T14:24:35.474Z,36.22
2023-08-29T14:27:05.995Z,36.22
2023-08-29T14:29:35.033Z,36.18
2023-08-29T14:32:03.241Z,36.16
2023-08-29T14:34:31.301Z,36.09
2023-08-29T14:37:04.012Z,36.04
2023-08-29T14:39:32.331Z,35.92
2023-08-29T14:42:00.452Z,35.76
2023-08-29T14:44:28.568Z,35.76
2023-08-29T14:46:58.701Z,35.67
2023-08-29T14:49:26.902Z,35.63
2023-08-29T14:51:55.732Z,35.58
2023-08-29T14:54:23.953Z,35.48
2023-08-29T14:56:52.167Z,35.42
2023-08-29T14:59:20.296Z,35.37
2023-08-29T15:01:48.507Z,35.30
2023-08-29T15:04:18.644Z,35.29
2023-08-29T15:06:46.957Z,35.31
2023-08-29T15:09:15.272Z,35.30
2023-08-29T15:11:43.399Z,35.25
2023-08-29T15:14:11.630Z,35.19
2023-08-29T15:16:40.305Z,35.14
2023-08-29T15:19:08.456Z,35.09
2023-08-29T15:21:37.084Z,35.03
2023-08-29T15:24:06.236Z,34.91
2023-08-29T15:26:34.632Z,34.83
2023-08-29T15:29:02.732Z,34.79
2023-08-29T15:31:31.115Z,34.69
2023-08-29T15:33:59.588Z,34.63
2023-08-29T15:36:27.810Z,34.61
2023-08-29T15:38:56.132Z,34.61
2023-08-29T15:41:24.653Z,34.57
2023-08-29T15:43:53.170Z,34.50
2023-08-29T15:46:21.870Z,34.42
2023-08-29T15:48:50.118Z,34.35
2023-08-29T15:51:18.338Z,34.30
2023-08-29T15:53:46.354Z,34.21
2023-08-29T15:56:14.477Z,34.13
2023-08-29T15:58:42.696Z,34.06
2023-08-29T16:01:11.802Z,34.00
2023-08-29T16:03:40.265Z,33.94
2023-08-29T16:06:08.573Z,33.89
2023-08-29T16:08:37.317Z,33.79
2023-08-29T16:11:05.605Z,33.68
2023-08-29T16:13:33.824Z,33.49
2023-08-29T16:16:02.255Z,33.28
2023-08-29T16:18:30.467Z,33.10
2023-08-29T16:20:58.685Z,32.86
2023-08-29T16:23:26.946Z,32.65
2023-08-29T16:25:55.146Z,32.41
2023-08-29T16:28:24.622Z,32.15
2023-08-29T16:30:53.064Z,31.96
2023-08-29T16:33:21.396Z,31.77
2023-08-29T16:35:49.512Z,31.61
2023-08-29T16:38:17.637Z,31.45
2023-08-29T16:40:45.756Z,31.31
2023-08-29T16:43:14.185Z,31.14
2023-08-29T16:45:42.499Z,30.93
2023-08-29T16:48:11.085Z,30.76
2023-08-29T16:50:40.130Z,30.62
2023-08-29T16:53:08.973Z,30.46
2023-08-29T16:55:37.202Z,30.37
2023-08-29T16:58:05.641Z,30.29
2023-08-29T17:00:35.032Z,30.20
2023-08-29T17:03:11.218Z,30.12
2023-08-29T17:05:40.320Z,30.02
2023-08-29T17:08:09.354Z,29.96
2023-08-29T17:10:38.146Z,29.88
2023-08-29T17:13:06.484Z,29.81
2023-08-29T17:15:34.692Z,29.74
2023-08-29T17:18:03.117Z,29.69
2023-08-29T17:20:31.439Z,29.63
2023-08-29T17:22:59.655Z,29.57
2023-08-29T17:25:29.577Z,29.51
2023-08-29T17:27:57.801Z,29.47
2023-08-29T17:30:26.022Z,29.42
2023-08-29T17:32:54.167Z,29.38
2023-08-29T17:35:22.376Z,29.35
2023-08-29T17:37:50.588Z,29.31
2023-08-29T17:40:18.912Z,29.27
2023-08-29T17:42:47.018Z,29.26
2023-08-29T17:45:15.546Z,29.25
2023-08-29T17:47:43.685Z,29.23
2023-08-29T17:50:13.194Z,29.22
2023-08-29T17:52:41.544Z,29.19
2023-08-29T17:55:10.035Z,29.16
2023-08-29T17:57:38.752Z,29.12
2023-08-29T18:00:07.779Z,29.09
2023-08-29T18:02:35.983Z,29.08
2023-08-29T18:05:04.722Z,29.09
2023-08-29T18:07:32.842Z,29.08
2023-08-29T18:10:14.659Z,29.05
2023-08-29T18:12:42.831Z,28.99
2023-08-29T18:15:11.653Z,28.96
2023-08-29T18:17:40.741Z,28.92
2023-08-29T18:20:09.334Z,28.88
2023-08-29T18:22:38.418Z,28.85
2023-08-29T18:25:07.073Z,28.81
2023-08-29T18:27:36.172Z,28.80
2023-08-29T18:30:05.090Z,28.79
2023-08-29T18:32:33.338Z,28.77
2023-08-29T18:35:01.730Z,28.74
2023-08-29T18:37:29.951Z,28.73
2023-08-29T18:39:58.114Z,28.71
2023-08-29T18:42:28.599Z,28.68
2023-08-29T18:44:56.712Z,28.65
2023-08-29T18:47:24.835Z,28.63
2023-08-29T18:49:53.054Z,28.60
2023-08-29T18:52:21.063Z,28.58
2023-08-29T18:54:49.199Z,28.56
2023-08-29T18:57:17.635Z,28.53
2023-08-29T18:59:45.753Z,28.50
2023-08-29T19:02:14.466Z,28.52
2023-08-29T19:04:44.293Z,28.56
2023-08-29T19:07:12.550Z,28.59
2023-08-29T19:09:40.724Z,28.62
2023-08-29T19:12:08.952Z,28.63
2023-08-29T19:14:37.268Z,28.63
2023-08-29T19:17:05.393Z,28.61
2023-08-29T19:19:33.605Z,28.59
2023-08-29T19:22:01.829Z,28.60
2023-08-29T19:24:29.946Z,28.60
2023-08-29T19:26:58.867Z,28.61
2023-08-29T19:29:27.192Z,28.60
2023-08-29T19:31:55.314Z,28.56
2023-08-29T19:34:24.722Z,28.50
2023-08-29T19:36:52.960Z,28.41
2023-08-29T19:39:22.582Z,28.30
2023-08-29T19:41:50.701Z,28.22
2023-08-29T19:44:19.320Z,28.17
2023-08-29T19:46:47.967Z,28.13
2023-08-29T19:49:16.397Z,28.11
2023-08-29T19:51:44.604Z,28.15
2023-08-29T19:54:12.988Z,28.18
2023-08-29T19:56:41.127Z,28.19
2023-08-29T19:59:09.347Z,28.22
2023-08-29T20:01:37.468Z,28.22
2023-08-29T20:04:06.113Z,28.23
2023-08-29T20:06:34.310Z,28.24
2023-08-29T20:09:02.431Z,28.25
2023-08-29T20:11:30.549Z,28.27
2023-08-29T20:13:58.677Z,28.30
2023-08-29T20:16:27.002Z,28.30
2023-08-29T20:18:56.233Z,28.28
2023-08-29T20:21:24.440Z,28.26
2023-08-29T20:24:01.727Z,28.24
2023-08-29T20:26:31.680Z,28.20
2023-08-29T20:29:03.153Z,28.16
2023-08-29T20:31:32.371Z,28.15
2023-08-29T20:34:00.608Z,28.14
2023-08-29T20:36:28.827Z,28.13
2023-08-29T20:38:57.132Z,28.10
2023-08-29T20:41:26.059Z,28.09
2023-08-29T20:43:54.178Z,28.08
2023-08-29T20:46:22.453Z,28.07
2023-08-29T20:48:53.128Z,28.07
2023-08-29T20:51:21.254Z,28.08
2023-08-29T20:53:50.274Z,28.08
2023-08-29T20:56:18.901Z,28.08
2023-08-29T20:58:48.316Z,28.07
2023-08-29T21:01:16.958Z,28.03
2023-08-29T21:03:45.137Z,28.00
2023-08-29T21:06:13.389Z,27.98
2023-08-29T21:08:41.495Z,27.99
2023-08-29T21:11:09.715Z,27.98
2023-08-29T21:13:37.847Z,28.00
2023-08-29T21:16:05.996Z,28.02
2023-08-29T21:18:34.177Z,28.01
2023-08-29T21:21:03.971Z,27.99
2023-08-29T21:23:32.250Z,27.95
2023-08-29T21:26:00.546Z,27.91
2023-08-29T21:28:28.783Z,27.91
2023-08-29T21:30:57.193Z,27.90
2023-08-29T21:33:25.512Z,27.92
2023-08-29T21:35:53.735Z,27.95
2023-08-29T21:38:22.450Z,27.99
2023-08-29T21:40:50.782Z,28.00
2023-08-29T21:43:21.094Z,27.96
2023-08-29T21:45:54.275Z,27.91
2023-08-29T21:48:25.291Z,27.87
2023-08-29T21:50:54.624Z,27.84
2023-08-29T21:53:23.515Z,27.80
2023-08-29T21:55:52.574Z,27.79
2023-08-29T21:58:21.361Z,27.78
2023-08-29T22:00:54.474Z,27.75
2023-08-29T22:03:24.212Z,27.74
2023-08-29T22:05:53.508Z,27.72
2023-08-29T22:08:22.367Z,27.70
2023-08-29T22:10:52.240Z,27.65
2023-08-29T22:13:20.535Z,27.63
2023-08-29T22:15:50.778Z,27.61
2023-08-29T22:18:19.066Z,27.61
2023-08-29T22:20:48.881Z,27.60
2023-08-29T22:23:17.010Z,27.59
2023-08-29T22:25:45.132Z,27.59
2023-08-29T22:28:13.250Z,27.60
2023-08-29T22:30:41.372Z,27.59
2023-08-29T22:33:09.591Z,27.57
2023-08-29T22:35:37.914Z,27.52
2023-08-29T22:38:06.141Z,27.46
2023-08-29T22:40:34.957Z,27.40
2023-08-29T22:43:03.174Z,27.38
2023-08-29T22:45:31.440Z,27.36
2023-08-29T22:47:59.652Z,27.35
2023-08-29T22:50:28.689Z,27.34
2023-08-29T22:52:56.965Z,27.33
2023-08-29T22:55:27.228Z,27.32
2023-08-29T22:57:55.405Z,27.32
2023-08-29T23:00:23.666Z,27.33
2023-08-29T23:02:52.151Z,27.31
2023-08-29T23:05:20.576Z,27.30
2023-08-29T23:07:48.796Z,27.28
2023-08-29T23:10:18.915Z,27.26
2023-08-29T23:12:47.039Z,27.25
2023-08-29T23:15:16.509Z,27.24
2023-08-29T23:17:44.971Z,27.23
2023-08-29T23:20:13.827Z,27.22
2023-08-29T23:22:42.031Z,27.21
2023-08-29T23:25:12.260Z,27.20
2023-08-29T23:27:41.980Z,27.19
2023-08-29T23:30:11.766Z,27.18
2023-08-29T23:32:40.146Z,27.18
2023-08-29T23:35:08.854Z,27.15
2023-08-29T23:37:37.070Z,27.13
2023-08-29T23:40:08.494Z,27.11
2023-08-29T23:42:37.626Z,27.12
2023-08-29T23:45:07.010Z,27.11
2023-08-29T23:47:35.401Z,27.11
2023-08-29T23:50:03.908Z,27.10
2023-08-29T23:52:32.076Z,27.11
2023-08-29T23:55:00.247Z,27.13
2023-08-29T23:57:28.554Z,27.15
2023-08-29T23:59:56.770Z,27.16
